PWSweather.com
Personal Weather Stations
Station Observations
CANDIOTINO
Barrio Candioti Norte, Santa FeAR 3000

Barrio Candioti NorteSanta FeAR 3000

Lat: -31.632778, Lon: -60.695556

Elevation: 69

Station Type: WH-1081

http://www.eltiempoensantafe.com.ar

High Low Average
Temperature 53.8°F12.1°C 45.1°F7.3°C 49.8°F9.9°C
Dew Point 47.3°F8.5°C 41.9°F5.5°C 43.7°F6.5°C
Winds 22.1 mph 35.6 kmh 5.4 mph 8.7 kmh 12.0 mph SSE19.3 kmh SSE
Wind Gusts 125.0 mph201.2 kmh 14.5 mph23.3 kmh 23.0 mph37.0 kmh
Humidity 96% 65% 80%
Pressure 30.06 in1017.9 mb 29.89 in1012.2 mb -
Precipitation 0.76 in19.3 mm - -
Hour Temp Dew Point Humidity Winds Wind Gusts Pressure Precip Precip Rate Daily Precip Total
12:00 AM 51.6°F10.9°C 47.3°F8.5°C 85% 13.0 mph SSE20.9 kmh SSE 22.1 mph35.6 kmh 29.91 in1012.9 mb 0.00 in0.0 mm 0.00 in0.0 mm 0.00 in0.0 mm
12:15 AM 51.4°F10.8°C 47.1°F8.4°C 85% 14.5 mph SSE23.3 kmh SSE 21.3 mph34.3 kmh 29.91 in1012.9 mb 0.00 in0.0 mm 0.00 in0.0 mm 0.00 in0.0 mm
12:30 AM 51.4°F10.8°C 46.8°F8.2°C 84% 17.4 mph SSE28.0 kmh SSE 125.0 mph201.2 kmh 29.90 in1012.5 mb 0.00 in0.0 mm 0.00 in0.0 mm 0.00 in0.0 mm
12:45 AM 51.4°F10.8°C 46.1°F7.8°C 82% 15.2 mph S24.5 kmh S 22.8 mph36.7 kmh 29.90 in1012.5 mb 0.00 in0.0 mm 0.00 in0.0 mm 0.00 in0.0 mm
01:00 AM 51.4°F10.8°C 46.5°F8.1°C 83% 13.6 mph SSE21.9 kmh SSE 22.8 mph36.7 kmh 29.90 in1012.5 mb 0.00 in0.0 mm 0.00 in0.0 mm 0.00 in0.0 mm
01:15 AM 51.4°F10.8°C 46.5°F8.1°C 83% 13.0 mph SSE20.9 kmh SSE 20.6 mph33.2 kmh 29.92 in1013.2 mb 0.00 in0.0 mm 0.00 in0.0 mm 0.00 in0.0 mm
01:30 AM 51.4°F10.8°C 46.1°F7.8°C 82% 12.1 mph SSE19.5 kmh SSE 19.7 mph31.7 kmh 29.93 in1013.5 mb 0.00 in0.0 mm 0.00 in0.0 mm 0.00 in0.0 mm
01:45 AM 51.1°F10.6°C 45.5°F7.5°C 81% 22.1 mph SE35.6 kmh SE 30.4 mph48.9 kmh 29.93 in1013.5 mb 0.00 in0.0 mm 0.00 in0.0 mm 0.00 in0.0 mm
02:00 AM 50.9°F10.5°C 45.0°F7.2°C 80% 8.3 mph SSE13.4 kmh SSE 21.3 mph34.3 kmh 29.93 in1013.5 mb 0.00 in0.0 mm 0.00 in0.0 mm 0.00 in0.0 mm
02:15 AM 50.9°F10.5°C 44.6°F7.0°C 79% 9.2 mph SE14.8 kmh SE 21.3 mph34.3 kmh 29.93 in1013.5 mb 0.00 in0.0 mm 0.00 in0.0 mm 0.00 in0.0 mm
02:30 AM 50.7°F10.4°C 44.8°F7.1°C 80% 14.5 mph SSE23.3 kmh SSE 24.4 mph39.3 kmh 29.91 in1012.9 mb 0.00 in0.0 mm 0.00 in0.0 mm 0.00 in0.0 mm
02:45 AM 50.5°F10.3°C 44.6°F7.0°C 80% 15.9 mph SSE25.6 kmh SSE 23.5 mph37.8 kmh 29.90 in1012.5 mb 0.00 in0.0 mm 0.00 in0.0 mm 0.00 in0.0 mm
03:00 AM 50.4°F10.2°C 44.1°F6.7°C 79% 13.0 mph SSE20.9 kmh SSE 25.9 mph41.7 kmh 29.90 in1012.5 mb 0.00 in0.0 mm 0.00 in0.0 mm 0.00 in0.0 mm
03:15 AM 50.4°F10.2°C 44.1°F6.7°C 79% 12.1 mph SSE19.5 kmh SSE 22.1 mph35.6 kmh 29.89 in1012.2 mb 0.00 in0.0 mm 0.00 in0.0 mm 0.00 in0.0 mm
03:30 AM 50.2°F10.1°C 43.9°F6.6°C 79% 7.6 mph SSE12.2 kmh SSE 22.1 mph35.6 kmh 29.91 in1012.9 mb 0.00 in0.0 mm 0.00 in0.0 mm 0.00 in0.0 mm
03:45 AM 50.2°F10.1°C 43.6°F6.4°C 78% 8.3 mph SSE13.4 kmh SSE 20.6 mph33.2 kmh 29.96 in1014.6 mb 0.00 in0.0 mm 0.00 in0.0 mm 0.00 in0.0 mm
04:00 AM 48.9°F9.4°C 44.0°F6.7°C 83% 9.8 mph SE15.8 kmh SE 20.6 mph33.2 kmh 29.94 in1013.9 mb 0.09 in2.3 mm 0.12 in3.0 mm 0.09 in2.3 mm
04:15 AM 48.2°F9.0°C 44.5°F6.9°C 87% 15.2 mph S24.5 kmh S 22.1 mph35.6 kmh 29.92 in1013.2 mb 0.14 in3.6 mm 0.20 in5.1 mm 0.14 in3.6 mm
04:30 AM 48.0°F8.9°C 44.9°F7.2°C 89% 8.3 mph SE13.4 kmh SE 17.4 mph28.0 kmh 29.91 in1012.9 mb 0.15 in3.8 mm 0.04 in1.0 mm 0.15 in3.8 mm
04:45 AM 48.0°F8.9°C 44.6°F7.0°C 88% 10.7 mph SE17.2 kmh SE 19.0 mph30.6 kmh 29.91 in1012.9 mb 0.15 in3.8 mm 0.00 in0.0 mm 0.15 in3.8 mm
05:00 AM 48.2°F9.0°C 44.5°F6.9°C 87% 10.7 mph SSE17.2 kmh SSE 22.1 mph35.6 kmh 29.93 in1013.5 mb 0.06 in1.5 mm 0.00 in0.0 mm 0.15 in3.8 mm
05:15 AM 48.2°F9.0°C 44.5°F6.9°C 87% 11.4 mph S18.3 kmh S 19.0 mph30.6 kmh 29.91 in1012.9 mb 0.01 in0.3 mm 0.00 in0.0 mm 0.15 in3.8 mm
05:30 AM 48.4°F9.1°C 44.4°F6.9°C 86% 18.3 mph SE29.5 kmh SE 24.4 mph39.3 kmh 29.91 in1012.9 mb 0.00 in0.0 mm 0.00 in0.0 mm 0.15 in3.8 mm
05:45 AM 48.6°F9.2°C 44.0°F6.7°C 84% 9.2 mph SSE14.8 kmh SSE 25.1 mph40.4 kmh 29.93 in1013.5 mb 0.00 in0.0 mm 0.00 in0.0 mm 0.15 in3.8 mm
06:00 AM 48.7°F9.3°C 42.9°F6.1°C 80% 13.0 mph SSE20.9 kmh SSE 26.6 mph42.8 kmh 29.93 in1013.5 mb 0.00 in0.0 mm 0.00 in0.0 mm 0.15 in3.8 mm
06:15 AM 48.7°F9.3°C 42.5°F5.8°C 79% 10.7 mph SSE17.2 kmh SSE 28.2 mph45.4 kmh 29.94 in1013.9 mb 0.00 in0.0 mm 0.00 in0.0 mm 0.15 in3.8 mm
06:30 AM 48.4°F9.1°C 42.5°F5.8°C 80% 11.4 mph SSE18.3 kmh SSE 28.9 mph46.5 kmh 29.91 in1012.9 mb 0.00 in0.0 mm 0.00 in0.0 mm 0.15 in3.8 mm
06:45 AM 48.0°F8.9°C 43.1°F6.2°C 83% 7.6 mph S12.2 kmh S 22.1 mph35.6 kmh 29.94 in1013.9 mb 0.01 in0.3 mm 0.04 in1.0 mm 0.17 in4.3 mm
07:00 AM 47.1°F8.4°C 43.2°F6.2°C 86% 9.2 mph SSE14.8 kmh SSE 20.6 mph33.2 kmh 29.93 in1013.5 mb 0.01 in0.3 mm 0.00 in0.0 mm 0.17 in4.3 mm
07:15 AM 47.3°F8.5°C 43.6°F6.4°C 87% 12.1 mph SSE19.5 kmh SSE 23.5 mph37.8 kmh 29.97 in1014.9 mb 0.02 in0.5 mm 0.04 in1.0 mm 0.18 in4.6 mm
07:30 AM 46.6°F8.1°C 43.5°F6.4°C 89% 8.3 mph S13.4 kmh S 25.1 mph40.4 kmh 29.99 in1015.6 mb 0.07 in1.8 mm 0.20 in5.1 mm 0.22 in5.6 mm
07:45 AM 46.2°F7.9°C 44.0°F6.7°C 92% 15.9 mph SSE25.6 kmh SSE 28.2 mph45.4 kmh 29.98 in1015.2 mb 0.15 in3.8 mm 0.32 in8.1 mm 0.32 in8.1 mm
08:00 AM 46.4°F8.0°C 44.5°F6.9°C 93% 11.4 mph W18.3 kmh W 15.9 mph25.6 kmh 30.04 in1017.3 mb 0.22 in5.6 mm 0.09 in2.3 mm 0.39 in9.9 mm
08:15 AM 45.1°F7.3°C 43.5°F6.4°C 94% 14.5 mph SE23.3 kmh SE 25.9 mph41.7 kmh 30.02 in1016.6 mb 0.48 in12.2 mm 1.04 in26.4 mm 0.66 in16.8 mm
08:30 AM 45.3°F7.4°C 44.2°F6.8°C 96% 12.1 mph SSE19.5 kmh SSE 25.9 mph41.7 kmh 30.02 in1016.6 mb 0.51 in13.0 mm 0.12 in3.0 mm 0.73 in18.5 mm
08:45 AM 45.5°F7.5°C 44.4°F6.9°C 96% 13.0 mph SSE20.9 kmh SSE 22.1 mph35.6 kmh 30.01 in1016.3 mb 0.43 in10.9 mm 0.00 in0.0 mm 0.74 in18.8 mm
09:00 AM 45.7°F7.6°C 44.3°F6.8°C 95% 12.1 mph SSE19.5 kmh SSE 25.9 mph41.7 kmh 30.02 in1016.6 mb 0.35 in8.9 mm 0.00 in0.0 mm 0.74 in18.8 mm
09:15 AM 46.0°F7.8°C 44.1°F6.7°C 93% 9.8 mph S15.8 kmh S 23.5 mph37.8 kmh 30.05 in1017.6 mb 0.07 in1.8 mm 0.00 in0.0 mm 0.74 in18.8 mm
09:30 AM 46.2°F7.9°C 43.5°F6.4°C 90% 12.1 mph S19.5 kmh S 25.9 mph41.7 kmh 30.06 in1017.9 mb 0.01 in0.3 mm 0.00 in0.0 mm 0.74 in18.8 mm
09:45 AM 46.4°F8.0°C 43.0°F6.1°C 88% 14.5 mph SE23.3 kmh SE 22.1 mph35.6 kmh 30.06 in1017.9 mb 0.00 in0.0 mm 0.00 in0.0 mm 0.74 in18.8 mm
10:00 AM 46.9°F8.3°C 43.0°F6.1°C 86% 16.8 mph SE27.0 kmh SE 26.6 mph42.8 kmh 30.05 in1017.6 mb 0.00 in0.0 mm 0.00 in0.0 mm 0.74 in18.8 mm
10:15 AM 47.8°F8.8°C 43.2°F6.2°C 84% 15.9 mph SSE25.6 kmh SSE 23.5 mph37.8 kmh 30.04 in1017.3 mb 0.01 in0.3 mm 0.04 in1.0 mm 0.76 in19.3 mm
10:30 AM 48.0°F8.9°C 43.1°F6.2°C 83% 12.1 mph SSE19.5 kmh SSE 23.5 mph37.8 kmh 30.04 in1017.3 mb 0.01 in0.3 mm 0.00 in0.0 mm 0.76 in19.3 mm
10:45 AM 47.8°F8.8°C 42.9°F6.1°C 83% 16.8 mph SSE27.0 kmh SSE 26.6 mph42.8 kmh 30.06 in1017.9 mb 0.01 in0.3 mm 0.00 in0.0 mm 0.76 in19.3 mm
11:00 AM 47.7°F8.7°C 43.1°F6.2°C 84% 15.2 mph SE24.5 kmh SE 24.4 mph39.3 kmh 30.04 in1017.3 mb 0.01 in0.3 mm 0.00 in0.0 mm 0.76 in19.3 mm
11:15 AM 48.2°F9.0°C 43.0°F6.1°C 82% 15.9 mph SE25.6 kmh SE 21.3 mph34.3 kmh 30.05 in1017.6 mb 0.00 in0.0 mm 0.00 in0.0 mm 0.76 in19.3 mm
11:30 AM 47.7°F8.7°C 43.1°F6.2°C 84% 15.2 mph SSE24.5 kmh SSE 22.1 mph35.6 kmh 30.06 in1017.9 mb 0.00 in0.0 mm 0.00 in0.0 mm 0.76 in19.3 mm
11:45 AM 48.0°F8.9°C 43.1°F6.2°C 83% 12.1 mph S19.5 kmh S 19.0 mph30.6 kmh 30.06 in1017.9 mb 0.00 in0.0 mm 0.00 in0.0 mm 0.76 in19.3 mm
12:00 PM 48.2°F9.0°C 43.0°F6.1°C 82% 11.4 mph SSE18.3 kmh SSE 22.8 mph36.7 kmh 30.05 in1017.6 mb 0.00 in0.0 mm 0.00 in0.0 mm 0.76 in19.3 mm
12:15 PM 47.8°F8.8°C 42.6°F5.9°C 82% 15.2 mph S24.5 kmh S 25.1 mph40.4 kmh 30.04 in1017.3 mb 0.00 in0.0 mm 0.00 in0.0 mm 0.76 in19.3 mm
12:30 PM 48.2°F9.0°C 43.0°F6.1°C 82% 14.5 mph SSE23.3 kmh SSE 22.8 mph36.7 kmh 30.04 in1017.3 mb 0.00 in0.0 mm 0.00 in0.0 mm 0.76 in19.3 mm
12:45 PM 48.4°F9.1°C 42.8°F6.0°C 81% 8.3 mph SE13.4 kmh SE 25.9 mph41.7 kmh 30.05 in1017.6 mb 0.00 in0.0 mm 0.00 in0.0 mm 0.76 in19.3 mm
01:00 PM 48.7°F9.3°C 42.9°F6.1°C 80% 13.0 mph SSE20.9 kmh SSE 20.6 mph33.2 kmh 30.04 in1017.3 mb 0.00 in0.0 mm 0.00 in0.0 mm 0.76 in19.3 mm
01:15 PM 49.1°F9.5°C 43.2°F6.2°C 80% 6.9 mph SE11.1 kmh SE 18.3 mph29.5 kmh 30.02 in1016.6 mb 0.00 in0.0 mm 0.00 in0.0 mm 0.76 in19.3 mm
01:30 PM 49.3°F9.6°C 43.4°F6.3°C 80% 9.2 mph SE14.8 kmh SE 19.7 mph31.7 kmh 30.02 in1016.6 mb 0.00 in0.0 mm 0.00 in0.0 mm 0.76 in19.3 mm
01:45 PM 50.2°F10.1°C 42.9°F6.1°C 76% 12.1 mph SE19.5 kmh SE 22.1 mph35.6 kmh 30.02 in1016.6 mb 0.00 in0.0 mm 0.00 in0.0 mm 0.76 in19.3 mm
02:00 PM 52.3°F11.3°C 42.5°F5.8°C 69% 12.1 mph SSE19.5 kmh SSE 23.5 mph37.8 kmh 30.01 in1016.3 mb 0.00 in0.0 mm 0.00 in0.0 mm 0.76 in19.3 mm
02:15 PM 51.8°F11.0°C 43.1°F6.2°C 72% 5.4 mph SSE8.7 kmh SSE 22.8 mph36.7 kmh 30.01 in1016.3 mb 0.00 in0.0 mm 0.00 in0.0 mm 0.76 in19.3 mm
02:30 PM 52.2°F11.2°C 41.9°F5.5°C 68% 12.1 mph S19.5 kmh S 20.6 mph33.2 kmh 30.01 in1016.3 mb 0.00 in0.0 mm 0.00 in0.0 mm 0.76 in19.3 mm
02:45 PM 52.5°F11.4°C 42.3°F5.7°C 68% 7.6 mph SSE12.2 kmh SSE 22.8 mph36.7 kmh 30.00 in1015.9 mb 0.00 in0.0 mm 0.00 in0.0 mm 0.76 in19.3 mm
03:00 PM 52.3°F11.3°C 42.5°F5.8°C 69% 7.6 mph S12.2 kmh S 26.6 mph42.8 kmh 30.00 in1015.9 mb 0.00 in0.0 mm 0.00 in0.0 mm 0.76 in19.3 mm
03:15 PM 52.5°F11.4°C 42.7°F5.9°C 69% 12.1 mph SSE19.5 kmh SSE 19.7 mph31.7 kmh 29.99 in1015.6 mb 0.00 in0.0 mm 0.00 in0.0 mm 0.76 in19.3 mm
03:30 PM 53.6°F12.0°C 42.9°F6.1°C 67% 7.6 mph SSE12.2 kmh SSE 20.6 mph33.2 kmh 29.98 in1015.2 mb 0.00 in0.0 mm 0.00 in0.0 mm 0.76 in19.3 mm
03:45 PM 53.8°F12.1°C 42.7°F5.9°C 66% 10.7 mph S17.2 kmh S 19.0 mph30.6 kmh 29.98 in1015.2 mb 0.00 in0.0 mm 0.00 in0.0 mm 0.76 in19.3 mm
04:00 PM 53.4°F11.9°C 42.7°F5.9°C 67% 8.3 mph SSE13.4 kmh SSE 19.0 mph30.6 kmh 29.97 in1014.9 mb 0.00 in0.0 mm 0.00 in0.0 mm 0.76 in19.3 mm
04:15 PM 53.4°F11.9°C 42.0°F5.6°C 65% 9.8 mph SSE15.8 kmh SSE 20.6 mph33.2 kmh 29.97 in1014.9 mb 0.00 in0.0 mm 0.00 in0.0 mm 0.76 in19.3 mm
04:30 PM 53.4°F11.9°C 42.4°F5.8°C 66% 13.0 mph S20.9 kmh S 19.0 mph30.6 kmh 29.97 in1014.9 mb 0.00 in0.0 mm 0.00 in0.0 mm 0.76 in19.3 mm
04:45 PM 53.4°F11.9°C 43.1°F6.2°C 68% 10.7 mph SSE17.2 kmh SSE 19.7 mph31.7 kmh 29.97 in1014.9 mb 0.00 in0.0 mm 0.00 in0.0 mm 0.76 in19.3 mm
05:00 PM 53.4°F11.9°C 42.7°F5.9°C 67% 11.4 mph SE18.3 kmh SE 16.8 mph27.0 kmh 29.98 in1015.2 mb 0.00 in0.0 mm 0.00 in0.0 mm 0.76 in19.3 mm
05:15 PM 52.9°F11.6°C 43.4°F6.3°C 70% 8.3 mph SSE13.4 kmh SSE 19.0 mph30.6 kmh 29.98 in1015.2 mb 0.00 in0.0 mm 0.00 in0.0 mm 0.76 in19.3 mm
05:30 PM 52.3°F11.3°C 43.6°F6.4°C 72% 9.2 mph S14.8 kmh S 15.9 mph25.6 kmh 29.99 in1015.6 mb 0.00 in0.0 mm 0.00 in0.0 mm 0.76 in19.3 mm
05:45 PM 52.3°F11.3°C 44.0°F6.7°C 73% 9.8 mph SSE15.8 kmh SSE 16.8 mph27.0 kmh 30.00 in1015.9 mb 0.00 in0.0 mm 0.00 in0.0 mm 0.76 in19.3 mm
06:00 PM 52.0°F11.1°C 43.6°F6.4°C 73% 11.4 mph S18.3 kmh S 17.4 mph28.0 kmh 30.01 in1016.3 mb 0.00 in0.0 mm 0.00 in0.0 mm 0.76 in19.3 mm
06:15 PM 52.0°F11.1°C 43.6°F6.4°C 73% 7.6 mph S12.2 kmh S 14.5 mph23.3 kmh 30.01 in1016.3 mb 0.00 in0.0 mm 0.00 in0.0 mm 0.76 in19.3 mm
06:30 PM 51.6°F10.9°C 43.6°F6.4°C 74% 11.4 mph S18.3 kmh S 19.7 mph31.7 kmh 30.01 in1016.3 mb 0.00 in0.0 mm 0.00 in0.0 mm 0.76 in19.3 mm
06:45 PM 51.6°F10.9°C 43.6°F6.4°C 74% 9.8 mph SSE15.8 kmh SSE 16.8 mph27.0 kmh 30.00 in1015.9 mb 0.00 in0.0 mm 0.00 in0.0 mm 0.76 in19.3 mm
07:00 PM 51.8°F11.0°C 43.8°F6.6°C 74% 9.2 mph SE14.8 kmh SE 19.7 mph31.7 kmh 30.00 in1015.9 mb 0.00 in0.0 mm 0.00 in0.0 mm 0.76 in19.3 mm
07:15 PM 51.8°F11.0°C 43.4°F6.3°C 73% 9.2 mph SE14.8 kmh SE 20.6 mph33.2 kmh 30.01 in1016.3 mb 0.00 in0.0 mm 0.00 in0.0 mm 0.76 in19.3 mm
07:30 PM 51.8°F11.0°C 43.4°F6.3°C 73% 13.6 mph S21.9 kmh S 23.5 mph37.8 kmh 30.00 in1015.9 mb 0.00 in0.0 mm 0.00 in0.0 mm 0.76 in19.3 mm
07:45 PM 51.8°F11.0°C 43.4°F6.3°C 73% 18.3 mph SSE29.5 kmh SSE 21.3 mph34.3 kmh 30.01 in1016.3 mb 0.00 in0.0 mm 0.00 in0.0 mm 0.76 in19.3 mm
08:00 PM 51.4°F10.8°C 43.4°F6.3°C 74% 9.8 mph S15.8 kmh S 23.5 mph37.8 kmh 30.01 in1016.3 mb 0.00 in0.0 mm 0.00 in0.0 mm 0.76 in19.3 mm
08:15 PM 51.3°F10.7°C 43.3°F6.3°C 74% 13.6 mph SE21.9 kmh SE 22.8 mph36.7 kmh 30.02 in1016.6 mb 0.00 in0.0 mm 0.00 in0.0 mm 0.76 in19.3 mm
08:30 PM 51.3°F10.7°C 43.3°F6.3°C 74% 7.6 mph SSE12.2 kmh SSE 20.6 mph33.2 kmh 30.02 in1016.6 mb 0.00 in0.0 mm 0.00 in0.0 mm 0.76 in19.3 mm
08:45 PM 51.1°F10.6°C 43.1°F6.2°C 74% 6.9 mph S11.1 kmh S 21.3 mph34.3 kmh 30.04 in1017.3 mb 0.00 in0.0 mm 0.00 in0.0 mm 0.76 in19.3 mm
09:00 PM 51.1°F10.6°C 43.1°F6.2°C 74% 11.4 mph SSE18.3 kmh SSE 20.6 mph33.2 kmh 30.04 in1017.3 mb 0.00 in0.0 mm 0.00 in0.0 mm 0.76 in19.3 mm
09:15 PM 50.9°F10.5°C 42.9°F6.1°C 74% 9.8 mph SSE15.8 kmh SSE 18.3 mph29.5 kmh 30.04 in1017.3 mb 0.00 in0.0 mm 0.00 in0.0 mm 0.76 in19.3 mm
09:30 PM 50.9°F10.5°C 43.3°F6.3°C 75% 12.1 mph SSE19.5 kmh SSE 22.8 mph36.7 kmh 30.04 in1017.3 mb 0.00 in0.0 mm 0.00 in0.0 mm 0.76 in19.3 mm
09:45 PM 50.7°F10.4°C 43.1°F6.2°C 75% 16.8 mph SSE27.0 kmh SSE 19.7 mph31.7 kmh 30.04 in1017.3 mb 0.00 in0.0 mm 0.00 in0.0 mm 0.76 in19.3 mm
10:00 PM 50.7°F10.4°C 43.1°F6.2°C 75% 15.9 mph SSE25.6 kmh SSE 24.4 mph39.3 kmh 30.07 in1018.3 mb 0.00 in0.0 mm 0.00 in0.0 mm 0.76 in19.3 mm
10:15 PM 50.5°F10.3°C 42.9°F6.1°C 75% 13.6 mph SE21.9 kmh SE 20.6 mph33.2 kmh 30.08 in1018.6 mb 0.00 in0.0 mm 0.00 in0.0 mm 0.76 in19.3 mm
10:30 PM 50.5°F10.3°C 42.9°F6.1°C 75% 9.2 mph SSE14.8 kmh SSE 21.3 mph34.3 kmh 30.08 in1018.6 mb 0.00 in0.0 mm 0.00 in0.0 mm 0.76 in19.3 mm
10:45 PM 50.4°F10.2°C 43.1°F6.2°C 76% 12.1 mph SSE19.5 kmh SSE 19.0 mph30.6 kmh 30.08 in1018.6 mb 0.00 in0.0 mm 0.00 in0.0 mm 0.76 in19.3 mm
11:00 PM 50.4°F10.2°C 43.1°F6.2°C 76% 13.0 mph S20.9 kmh S 20.6 mph33.2 kmh 30.08 in1018.6 mb 0.00 in0.0 mm 0.00 in0.0 mm 0.76 in19.3 mm
11:15 PM 50.0°F10.0°C 43.4°F6.3°C 78% 12.1 mph SSE19.5 kmh SSE 19.7 mph31.7 kmh 30.09 in1019.0 mb 0.00 in0.0 mm 0.00 in0.0 mm 0.76 in19.3 mm
11:30 PM 50.2°F10.1°C 43.3°F6.3°C 77% 6.0 mph SSE9.7 kmh SSE 16.8 mph27.0 kmh 30.09 in1019.0 mb 0.00 in0.0 mm 0.00 in0.0 mm 0.76 in19.3 mm
11:45 PM 50.0°F10.0°C 43.1°F6.2°C 77% 9.8 mph SSE15.8 kmh SSE 18.3 mph29.5 kmh 30.09 in1019.0 mb 0.00 in0.0 mm 0.00 in0.0 mm 0.76 in19.3 mm